createdAt,value
2018-12-26T00:00:00.130Z,-1.00
2018-12-26T00:02:29.173Z,-0.90
2018-12-26T00:04:57.606Z,-0.80
2018-12-26T00:07:26.042Z,-0.80
2018-12-26T00:09:54.503Z,-0.80
2018-12-26T00:12:23.298Z,-0.70
2018-12-26T00:14:51.745Z,-0.80
2018-12-26T00:17:20.314Z,-0.90
2018-12-26T00:19:48.780Z,-0.80
2018-12-26T00:22:17.303Z,-0.70
2018-12-26T00:24:45.774Z,-0.60
2018-12-26T00:27:14.214Z,-0.70
2018-12-26T00:29:42.716Z,-0.70
2018-12-26T00:32:11.181Z,-0.60
2018-12-26T00:34:39.858Z,-0.60
2018-12-26T00:37:08.370Z,-0.50
2018-12-26T00:39:37.277Z,-0.70
2018-12-26T00:42:05.973Z,-0.70
2018-12-26T00:44:34.498Z,-0.80
2018-12-26T00:47:03.109Z,-0.80
2018-12-26T00:49:31.624Z,-0.80
2018-12-26T00:52:00.175Z,-0.90
2018-12-26T00:54:28.729Z,-0.90
2018-12-26T00:56:57.170Z,-1.00
2018-12-26T00:59:25.661Z,-0.90
2018-12-26T01:01:54.113Z,-0.90
2018-12-26T01:04:22.626Z,-0.90
2018-12-26T01:06:51.415Z,-1.00
2018-12-26T01:09:19.852Z,-1.00
2018-12-26T01:11:48.405Z,-1.00
2018-12-26T01:14:16.949Z,-1.00
2018-12-26T01:16:45.562Z,-1.10
2018-12-26T01:19:13.997Z,-1.10
2018-12-26T01:21:43.167Z,-1.10
2018-12-26T01:24:12.590Z,-1.10
2018-12-26T01:26:41.477Z,-1.10
2018-12-26T01:29:10.924Z,-1.10
2018-12-26T01:31:39.802Z,-1.10
2018-12-26T01:34:08.697Z,-1.20
2018-12-26T01:36:37.402Z,-1.10
2018-12-26T01:39:06.378Z,-1.10
2018-12-26T01:41:35.021Z,-1.10
2018-12-26T01:44:03.470Z,-1.10
2018-12-26T01:46:31.910Z,-1.10
2018-12-26T01:49:00.366Z,-1.00
2018-12-26T01:51:28.806Z,-1.00
2018-12-26T01:53:57.566Z,-1.00
2018-12-26T01:56:28.077Z,-1.00
2018-12-26T01:58:56.197Z,-0.90
2018-12-26T02:01:24.639Z,-0.90
2018-12-26T02:03:53.136Z,-1.00
2018-12-26T02:06:21.653Z,-0.90
2018-12-26T02:08:50.094Z,-1.10
2018-12-26T02:11:18.729Z,-1.00
2018-12-26T02:13:47.169Z,-1.00
2018-12-26T02:16:15.614Z,-1.00
2018-12-26T02:18:44.161Z,-1.00
2018-12-26T02:21:12.677Z,-0.90
2018-12-26T02:23:41.149Z,-1.00
2018-12-26T02:26:10.154Z,-1.00
2018-12-26T02:28:39.668Z,-1.00
2018-12-26T02:31:09.098Z,-1.00
2018-12-26T02:33:37.510Z,-0.90
2018-12-26T02:36:05.978Z,-0.90
2018-12-26T02:38:34.434Z,-0.90
2018-12-26T02:41:03.053Z,-0.90
2018-12-26T02:43:31.815Z,-0.90
2018-12-26T02:46:00.433Z,-1.00
2018-12-26T02:48:28.937Z,-0.90
2018-12-26T02:50:57.472Z,-0.80
2018-12-26T02:53:26.061Z,-0.90
2018-12-26T02:55:55.180Z,-0.70
2018-12-26T02:58:23.760Z,-0.70
2018-12-26T03:00:52.221Z,-0.70
2018-12-26T03:03:20.681Z,-0.70
2018-12-26T03:05:49.289Z,-0.80
2018-12-26T03:08:17.810Z,-0.80
2018-12-26T03:10:46.622Z,-0.80
2018-12-26T03:13:15.222Z,-0.80
2018-12-26T03:15:43.827Z,-0.80
2018-12-26T03:18:12.273Z,-0.80
2018-12-26T03:20:40.730Z,-0.70
2018-12-26T03:23:09.185Z,-0.80
2018-12-26T03:25:37.638Z,-0.60
2018-12-26T03:28:06.081Z,-0.60
2018-12-26T03:30:34.602Z,-0.50
2018-12-26T03:33:03.111Z,-0.40
2018-12-26T03:35:31.632Z,-0.40
2018-12-26T03:38:00.093Z,-0.40
2018-12-26T03:40:28.607Z,-0.40
2018-12-26T03:42:57.335Z,-0.60
2018-12-26T03:45:25.794Z,-0.60
2018-12-26T03:47:54.296Z,-0.50
2018-12-26T03:50:22.901Z,-0.50
2018-12-26T03:52:51.911Z,-0.60
2018-12-26T03:55:20.757Z,-0.70
2018-12-26T03:57:49.337Z,-0.70
2018-12-26T04:00:17.790Z,-0.60
2018-12-26T04:02:46.399Z,-0.70
2018-12-26T04:05:15.086Z,-0.60
2018-12-26T04:07:43.546Z,-0.60
2018-12-26T04:10:12.361Z,-0.70
2018-12-26T04:12:40.934Z,-0.60
2018-12-26T04:15:09.400Z,-0.80
2018-12-26T04:17:37.909Z,-0.80
2018-12-26T04:20:06.910Z,-0.80
2018-12-26T04:22:35.649Z,-0.70
2018-12-26T04:25:04.627Z,-0.80
2018-12-26T04:27:33.065Z,-0.80
2018-12-26T04:30:01.506Z,-0.80
2018-12-26T04:32:29.961Z,-0.80
2018-12-26T04:34:58.491Z,-0.80
2018-12-26T04:37:27.341Z,-0.80
2018-12-26T04:39:55.782Z,-0.80
2018-12-26T04:42:24.237Z,-0.80
2018-12-26T04:44:52.682Z,-0.70
2018-12-26T04:47:21.142Z,-0.70
2018-12-26T04:49:49.598Z,-0.70
2018-12-26T04:52:18.313Z,-0.70
2018-12-26T04:54:46.851Z,-0.80
2018-12-26T04:57:24.488Z,-0.80
2018-12-26T04:59:45.773Z,-0.80
2018-12-26T05:02:14.355Z,-0.70
2018-12-26T05:04:43.088Z,-0.70
2018-12-26T05:07:11.538Z,-0.80
2018-12-26T05:09:39.983Z,-0.80
2018-12-26T05:12:08.834Z,-0.90
2018-12-26T05:14:37.354Z,-0.80
2018-12-26T05:17:06.101Z,-0.70
2018-12-26T05:19:34.734Z,-0.70
2018-12-26T05:22:03.295Z,-0.70
2018-12-26T05:24:32.343Z,-0.70
2018-12-26T05:27:00.877Z,-0.60
2018-12-26T05:29:29.358Z,-0.50
2018-12-26T05:31:57.802Z,-0.40
2018-12-26T05:34:26.510Z,-0.30
2018-12-26T05:36:55.345Z,-0.20
2018-12-26T05:39:24.070Z,-0.10
2018-12-26T05:41:52.510Z,-0.20
2018-12-26T05:44:20.974Z,-0.10
2018-12-26T05:46:49.438Z,-0.20
2018-12-26T05:49:17.954Z,-0.20
2018-12-26T05:51:46.419Z,-0.20
2018-12-26T05:54:14.866Z,-0.20
2018-12-26T05:56:43.309Z,-0.20
2018-12-26T05:59:11.799Z,-0.20
2018-12-26T06:01:40.238Z,-0.20
2018-12-26T06:04:08.674Z,-0.20
2018-12-26T06:06:37.141Z,-0.30
2018-12-26T06:09:07.520Z,-0.20
2018-12-26T06:11:35.998Z,-0.20
2018-12-26T06:14:04.625Z,-0.40
2018-12-26T06:16:33.326Z,-0.50
2018-12-26T06:19:01.863Z,-0.40
2018-12-26T06:21:30.381Z,-0.50
2018-12-26T06:23:58.845Z,-0.60
2018-12-26T06:26:27.564Z,-0.40
2018-12-26T06:28:56.026Z,-0.30
2018-12-26T06:31:24.461Z,-0.30
2018-12-26T06:33:52.913Z,-0.20
2018-12-26T06:36:21.374Z,-0.20
2018-12-26T06:38:49.894Z,-0.30
2018-12-26T06:41:18.350Z,-0.30
2018-12-26T06:43:46.877Z,-0.20
2018-12-26T06:46:15.322Z,-0.20
2018-12-26T06:48:43.787Z,-0.50
2018-12-26T06:51:12.510Z,-0.50
2018-12-26T06:53:41.334Z,-0.50
2018-12-26T06:56:09.932Z,-0.40
2018-12-26T06:58:38.624Z,-0.40
2018-12-26T07:01:07.069Z,-0.70
2018-12-26T07:03:35.583Z,-0.70
2018-12-26T07:06:04.109Z,-0.60
2018-12-26T07:08:32.912Z,-0.60
2018-12-26T07:11:01.493Z,-0.60
2018-12-26T07:13:29.978Z,-0.50
2018-12-26T07:15:58.541Z,-0.60
2018-12-26T07:18:26.982Z,-0.60
2018-12-26T07:20:55.433Z,-0.70
2018-12-26T07:23:24.150Z,-0.80
2018-12-26T07:25:52.696Z,-0.80
2018-12-26T07:28:21.525Z,-0.70
2018-12-26T07:30:50.002Z,-0.80
2018-12-26T07:33:18.433Z,-0.60
2018-12-26T07:35:46.891Z,-0.70
2018-12-26T07:38:15.330Z,-0.80
2018-12-26T07:40:43.798Z,-0.90
2018-12-26T07:43:12.317Z,-0.90
2018-12-26T07:45:40.782Z,-1.00
2018-12-26T07:48:09.306Z,-0.90
2018-12-26T07:50:37.828Z,-0.80
2018-12-26T07:53:06.262Z,-0.70
2018-12-26T07:55:34.725Z,-0.60
2018-12-26T07:58:03.169Z,-0.50
2018-12-26T08:00:31.743Z,-0.50
2018-12-26T08:03:00.256Z,-0.40
2018-12-26T08:05:28.707Z,-0.60
2018-12-26T08:07:57.145Z,-0.50
2018-12-26T08:10:25.697Z,-0.40
2018-12-26T08:12:54.141Z,-0.40
2018-12-26T08:15:22.585Z,-0.30
2018-12-26T08:17:51.112Z,-0.20
2018-12-26T08:20:20.138Z,-0.10
2018-12-26T08:22:48.594Z,0.00
2018-12-26T08:25:17.018Z,0.10
2018-12-26T08:27:45.481Z,0.10
2018-12-26T08:30:14.047Z,0.10
2018-12-26T08:32:42.541Z,0.10
2018-12-26T08:35:10.977Z,0.10
2018-12-26T08:37:39.506Z,0.00
2018-12-26T08:40:08.325Z,-0.10
2018-12-26T08:42:36.878Z,-0.40
2018-12-26T08:45:05.517Z,-0.40
2018-12-26T08:47:33.985Z,-0.30
2018-12-26T08:50:02.502Z,-0.20
2018-12-26T08:52:31.073Z,-0.30
2018-12-26T08:54:59.543Z,-0.40
2018-12-26T08:57:28.095Z,-0.50
2018-12-26T08:59:56.797Z,-0.40
2018-12-26T09:02:25.265Z,-0.30
2018-12-26T09:04:53.950Z,-0.10
2018-12-26T09:07:22.454Z,0.00
2018-12-26T09:09:50.897Z,-0.40
2018-12-26T09:12:19.354Z,-0.70
2018-12-26T09:14:47.874Z,-0.90
2018-12-26T09:17:16.326Z,-0.90
2018-12-26T09:19:44.769Z,-0.70
2018-12-26T09:22:13.230Z,-0.70
2018-12-26T09:24:41.674Z,-0.80
2018-12-26T09:27:10.662Z,-0.70
2018-12-26T09:29:39.125Z,-0.60
2018-12-26T09:32:07.669Z,-0.70
2018-12-26T09:34:36.235Z,-0.80
2018-12-26T09:37:04.689Z,-0.60
2018-12-26T09:39:33.133Z,-0.60
2018-12-26T09:42:01.597Z,-0.50
2018-12-26T09:44:30.041Z,-0.50
2018-12-26T09:46:58.550Z,-0.60
2018-12-26T09:49:27.018Z,-0.50
2018-12-26T09:51:55.473Z,-0.30
2018-12-26T09:54:23.974Z,-0.10
2018-12-26T09:56:52.450Z,0.00
2018-12-26T09:59:21.060Z,0.10
2018-12-26T10:01:49.495Z,0.20
2018-12-26T10:04:18.014Z,0.40
2018-12-26T10:06:46.447Z,0.40
2018-12-26T10:09:14.882Z,0.40
2018-12-26T10:11:43.365Z,-0.10
2018-12-26T10:14:11.806Z,-0.30
2018-12-26T10:16:40.254Z,-0.10
2018-12-26T10:19:08.717Z,-0.20
2018-12-26T10:21:37.433Z,-0.20
2018-12-26T10:24:05.869Z,0.00
2018-12-26T10:26:34.402Z,-0.20
2018-12-26T10:29:03.188Z,-0.30
2018-12-26T10:31:31.698Z,-0.10
2018-12-26T10:34:00.158Z,0.00
2018-12-26T10:36:28.613Z,-0.30
2018-12-26T10:38:57.046Z,-0.50
2018-12-26T10:41:25.517Z,-0.50
2018-12-26T10:43:53.959Z,-0.60
2018-12-26T10:46:22.753Z,-0.20
2018-12-26T10:48:51.218Z,-0.30
2018-12-26T10:51:19.746Z,-0.50
2018-12-26T10:53:48.182Z,-0.50
2018-12-26T10:56:16.985Z,-0.40
2018-12-26T10:58:45.454Z,-0.50
2018-12-26T11:01:14.150Z,-0.60
2018-12-26T11:03:42.618Z,-0.30
2018-12-26T11:06:11.065Z,0.00
2018-12-26T11:08:39.501Z,0.10
2018-12-26T11:11:07.979Z,-0.30
2018-12-26T11:13:36.498Z,-0.20
2018-12-26T11:16:04.966Z,-0.20
2018-12-26T11:18:33.437Z,0.00
2018-12-26T11:21:01.881Z,0.20
2018-12-26T11:23:30.323Z,0.70
2018-12-26T11:25:58.881Z,0.90
2018-12-26T11:28:27.370Z,1.50
2018-12-26T11:30:55.802Z,1.70
2018-12-26T11:33:24.253Z,2.00
2018-12-26T11:35:52.690Z,2.10
2018-12-26T11:38:21.259Z,2.20
2018-12-26T11:40:49.789Z,2.10
2018-12-26T11:43:18.335Z,1.80
2018-12-26T11:45:46.938Z,1.80
2018-12-26T11:48:15.399Z,2.00
2018-12-26T11:50:43.921Z,1.70
2018-12-26T11:53:12.374Z,2.20
2018-12-26T11:55:40.831Z,2.40
2018-12-26T11:58:09.328Z,2.30
2018-12-26T12:00:37.848Z,2.10
2018-12-26T12:03:06.368Z,1.90
2018-12-26T12:05:34.912Z,2.00
2018-12-26T12:08:03.345Z,1.90
2018-12-26T12:10:31.797Z,1.80
2018-12-26T12:13:00.226Z,1.50
2018-12-26T12:15:28.730Z,1.20
2018-12-26T12:17:57.162Z,0.70
2018-12-26T12:20:25.595Z,0.90
2018-12-26T12:22:54.141Z,1.30
2018-12-26T12:25:22.608Z,1.80
2018-12-26T12:27:51.123Z,1.40
2018-12-26T12:30:19.978Z,1.40
2018-12-26T12:32:48.490Z,1.70
2018-12-26T12:35:16.982Z,1.80
2018-12-26T12:37:45.505Z,1.30
2018-12-26T12:40:13.939Z,1.20
2018-12-26T12:42:42.606Z,1.20
2018-12-26T12:45:11.575Z,0.50
2018-12-26T12:47:40.387Z,0.50
2018-12-26T12:50:09.156Z,0.30
2018-12-26T12:52:37.758Z,0.30
2018-12-26T12:55:06.346Z,0.40
2018-12-26T12:57:34.989Z,0.50
2018-12-26T13:00:03.834Z,0.20
2018-12-26T13:02:32.457Z,0.50
2018-12-26T13:05:01.255Z,0.50
2018-12-26T13:07:29.798Z,0.00
2018-12-26T13:09:58.241Z,-0.10
2018-12-26T13:12:26.686Z,-0.10
2018-12-26T13:14:55.169Z,0.10
2018-12-26T13:17:23.658Z,0.40
2018-12-26T13:19:52.182Z,0.90
2018-12-26T13:22:20.618Z,1.20
2018-12-26T13:24:49.062Z,1.20
2018-12-26T13:27:17.494Z,1.50
2018-12-26T13:29:53.472Z,1.60
2018-12-26T13:32:16.395Z,1.40
2018-12-26T13:34:45.311Z,1.20
2018-12-26T13:37:14.108Z,1.10
2018-12-26T13:39:42.586Z,0.80
2018-12-26T13:42:11.016Z,0.60
2018-12-26T13:44:39.463Z,0.30
2018-12-26T13:47:07.931Z,0.20
2018-12-26T13:49:36.425Z,0.10
2018-12-26T13:52:05.826Z,0.10
2018-12-26T13:54:34.315Z,0.20
2018-12-26T13:57:02.738Z,0.20
2018-12-26T13:59:31.421Z,0.20
2018-12-26T14:01:59.877Z,0.20
2018-12-26T14:04:28.312Z,0.40
2018-12-26T14:06:56.770Z,0.60
2018-12-26T14:09:25.564Z,0.70
2018-12-26T14:11:54.062Z,0.80
2018-12-26T14:14:22.498Z,0.80
2018-12-26T14:16:50.954Z,0.90
2018-12-26T14:19:19.386Z,0.70
2018-12-26T14:21:47.900Z,0.40
2018-12-26T14:24:16.358Z,0.30
2018-12-26T14:26:44.793Z,0.20
2018-12-26T14:29:13.225Z,0.10
2018-12-26T14:31:41.682Z,0.00
2018-12-26T14:34:10.141Z,-0.10
2018-12-26T14:36:38.822Z,-0.10
2018-12-26T14:39:07.333Z,0.00
2018-12-26T14:41:35.769Z,0.10
2018-12-26T14:44:04.210Z,0.00
2018-12-26T14:46:32.970Z,-0.10
2018-12-26T14:49:01.398Z,0.00
2018-12-26T14:51:29.841Z,-0.10
2018-12-26T14:53:58.305Z,-0.10
2018-12-26T14:56:26.826Z,-0.30
2018-12-26T14:58:55.274Z,-0.20
2018-12-26T15:01:23.729Z,-0.10
2018-12-26T15:03:52.190Z,0.00
2018-12-26T15:06:20.633Z,0.20
2018-12-26T15:08:49.089Z,0.30
2018-12-26T15:11:17.615Z,0.10
2018-12-26T15:13:47.792Z,0.10
2018-12-26T15:16:16.320Z,0.10
2018-12-26T15:18:44.754Z,-0.10
2018-12-26T15:21:13.190Z,-0.10
2018-12-26T15:23:41.921Z,-0.20
2018-12-26T15:26:10.357Z,-0.20
2018-12-26T15:28:38.818Z,-0.30
2018-12-26T15:31:07.329Z,-0.30
2018-12-26T15:33:36.049Z,-0.20
2018-12-26T15:36:04.572Z,-0.20
2018-12-26T15:38:33.896Z,-0.30
2018-12-26T15:41:02.317Z,-0.40
2018-12-26T15:43:30.777Z,-0.40
2018-12-26T15:45:59.214Z,-0.40
2018-12-26T15:48:27.771Z,-0.50
2018-12-26T15:50:56.301Z,-0.60
2018-12-26T15:53:25.028Z,-0.70
2018-12-26T15:55:53.619Z,-0.70
2018-12-26T15:58:22.398Z,-0.70
2018-12-26T16:00:50.846Z,-0.70
2018-12-26T16:03:19.275Z,-0.70
2018-12-26T16:05:47.745Z,-0.70
2018-12-26T16:08:16.956Z,-0.70
2018-12-26T16:10:45.506Z,-0.70
2018-12-26T16:13:14.053Z,-0.80
2018-12-26T16:15:42.563Z,-0.70
2018-12-26T16:18:11.072Z,-0.60
2018-12-26T16:20:39.630Z,-0.60
2018-12-26T16:23:08.086Z,-0.50
2018-12-26T16:25:36.526Z,-0.60
2018-12-26T16:28:05.038Z,-0.50
2018-12-26T16:30:33.513Z,-0.40
2018-12-26T16:33:02.079Z,-0.30
2018-12-26T16:35:30.547Z,-0.20
2018-12-26T16:38:01.633Z,-0.10
2018-12-26T16:40:29.636Z,-0.10
2018-12-26T16:42:58.041Z,0.00
2018-12-26T16:45:26.473Z,0.00
2018-12-26T16:47:54.922Z,0.00
2018-12-26T16:50:27.149Z,0.00
2018-12-26T16:52:53.885Z,-0.10
2018-12-26T16:55:22.316Z,0.00
2018-12-26T16:57:50.828Z,0.00
2018-12-26T17:00:19.379Z,-0.10
2018-12-26T17:02:47.855Z,-0.10
2018-12-26T17:05:16.354Z,-0.10
2018-12-26T17:07:44.791Z,-0.10
2018-12-26T17:10:16.341Z,-0.10
2018-12-26T17:12:44.804Z,-0.10
2018-12-26T17:15:13.338Z,-0.20
2018-12-26T17:17:42.017Z,-0.30
2018-12-26T17:20:10.482Z,-0.30
2018-12-26T17:22:38.923Z,-0.50
2018-12-26T17:25:07.617Z,-0.50
2018-12-26T17:27:36.405Z,-0.60
2018-12-26T17:30:06.088Z,-0.70
2018-12-26T17:32:34.605Z,-0.80
2018-12-26T17:35:03.429Z,-0.70
2018-12-26T17:37:32.119Z,-0.70
2018-12-26T17:40:00.586Z,-0.70
2018-12-26T17:42:29.116Z,-0.70
2018-12-26T17:44:57.601Z,-0.80
2018-12-26T17:47:26.307Z,-0.70
2018-12-26T17:50:14.359Z,-0.70
2018-12-26T17:52:42.798Z,-0.70
2018-12-26T17:55:14.334Z,-0.70
2018-12-26T17:57:42.817Z,-0.70
2018-12-26T18:00:14.438Z,-0.70
2018-12-26T18:02:42.874Z,-0.80
2018-12-26T18:05:11.406Z,-0.80
2018-12-26T18:07:39.881Z,-0.80
2018-12-26T18:10:08.375Z,-0.90
2018-12-26T18:12:36.842Z,-0.80
2018-12-26T18:15:06.033Z,-0.90
2018-12-26T18:17:34.476Z,-0.90
2018-12-26T18:20:02.942Z,-0.90
2018-12-26T18:22:31.379Z,-0.90
2018-12-26T18:25:00.420Z,-0.90
2018-12-26T18:27:29.232Z,-0.90
2018-12-26T18:29:57.682Z,-0.90
2018-12-26T18:32:26.168Z,-0.90
2018-12-26T18:34:54.672Z,-1.00
2018-12-26T18:37:23.209Z,-1.00
2018-12-26T18:39:51.941Z,-1.00
2018-12-26T18:42:20.411Z,-1.10
2018-12-26T18:44:48.858Z,-1.10
2018-12-26T18:47:17.307Z,-1.00
2018-12-26T18:49:45.809Z,-1.00
2018-12-26T18:52:14.288Z,-0.90
2018-12-26T18:54:42.793Z,-1.00
2018-12-26T18:57:11.314Z,-1.00
2018-12-26T18:59:39.772Z,-1.00
2018-12-26T19:02:08.213Z,-1.10
2018-12-26T19:04:36.702Z,-1.00
2018-12-26T19:07:05.165Z,-1.00
2018-12-26T19:09:33.917Z,-1.00
2018-12-26T19:12:02.464Z,-1.10
2018-12-26T19:14:30.918Z,-1.10
2018-12-26T19:16:59.470Z,-1.10
2018-12-26T19:19:29.315Z,-1.20
2018-12-26T19:21:57.847Z,-1.20
2018-12-26T19:24:26.705Z,-1.20
2018-12-26T19:26:55.377Z,-1.40
2018-12-26T19:29:24.105Z,-1.50
2018-12-26T19:31:52.762Z,-1.40
2018-12-26T19:34:21.278Z,-1.40
2018-12-26T19:36:49.989Z,-1.40
2018-12-26T19:39:18.446Z,-1.50
2018-12-26T19:41:46.906Z,-1.50
2018-12-26T19:44:15.352Z,-1.50
2018-12-26T19:46:43.859Z,-1.40
2018-12-26T19:49:12.305Z,-1.50
2018-12-26T19:51:40.766Z,-1.50
2018-12-26T19:54:09.217Z,-1.50
2018-12-26T19:56:37.842Z,-1.50
2018-12-26T19:59:06.437Z,-1.50
2018-12-26T20:01:34.938Z,-1.60
2018-12-26T20:04:03.585Z,-1.50
2018-12-26T20:06:32.392Z,-1.50
2018-12-26T20:09:01.187Z,-1.50
2018-12-26T20:11:29.689Z,-1.60
2018-12-26T20:13:58.224Z,-1.60
2018-12-26T20:16:26.678Z,-1.60
2018-12-26T20:18:55.122Z,-1.70
2018-12-26T20:21:23.583Z,-1.70
2018-12-26T20:23:52.037Z,-1.70
2018-12-26T20:26:20.494Z,-1.70
2018-12-26T20:28:48.949Z,-1.70
2018-12-26T20:31:17.402Z,-1.70
2018-12-26T20:33:46.457Z,-1.80
2018-12-26T20:36:14.898Z,-1.80
2018-12-26T20:38:43.369Z,-1.70
2018-12-26T20:41:11.908Z,-1.70
2018-12-26T20:43:40.533Z,-1.70
2018-12-26T20:46:09.067Z,-1.60
2018-12-26T20:48:37.588Z,-1.70
2018-12-26T20:51:06.025Z,-1.70
2018-12-26T20:53:34.665Z,-1.80
2018-12-26T20:56:03.110Z,-1.80
2018-12-26T20:58:31.561Z,-1.80
2018-12-26T21:01:00.005Z,-1.80
2018-12-26T21:03:28.474Z,-1.80
2018-12-26T21:05:56.949Z,-1.80
2018-12-26T21:08:25.413Z,-1.80
2018-12-26T21:10:54.010Z,-1.90
2018-12-26T21:13:22.469Z,-1.90
2018-12-26T21:15:50.976Z,-2.00
2018-12-26T21:18:19.490Z,-2.10
2018-12-26T21:20:49.575Z,-2.10
2018-12-26T21:23:18.433Z,-2.10
2018-12-26T21:25:46.899Z,-2.20
2018-12-26T21:28:15.377Z,-2.30
2018-12-26T21:30:43.943Z,-2.30
2018-12-26T21:33:12.733Z,-2.20
2018-12-26T21:35:41.346Z,-2.20
2018-12-26T21:38:09.957Z,-2.20
2018-12-26T21:40:38.498Z,-2.20
2018-12-26T21:43:07.001Z,-2.20
2018-12-26T21:45:35.453Z,-2.20
2018-12-26T21:48:03.929Z,-2.20
2018-12-26T21:50:32.373Z,-2.10
2018-12-26T21:53:00.813Z,-2.10
2018-12-26T21:55:29.453Z,-2.10
2018-12-26T21:57:58.077Z,-2.20
2018-12-26T22:00:26.581Z,-2.20
2018-12-26T22:02:55.049Z,-2.20
2018-12-26T22:05:23.689Z,-2.20
2018-12-26T22:07:52.134Z,-2.20
2018-12-26T22:10:20.642Z,-2.20
2018-12-26T22:12:49.077Z,-2.20
2018-12-26T22:15:17.515Z,-2.30
2018-12-26T22:17:46.101Z,-2.30
2018-12-26T22:20:14.567Z,-2.30
2018-12-26T22:22:43.029Z,-2.30
2018-12-26T22:25:11.489Z,-2.30
2018-12-26T22:27:39.929Z,-2.30
2018-12-26T22:30:10.501Z,-2.30
2018-12-26T22:32:38.982Z,-2.20
2018-12-26T22:35:07.636Z,-2.20
2018-12-26T22:37:36.069Z,-2.30
2018-12-26T22:40:04.878Z,-2.30
2018-12-26T22:42:33.347Z,-2.30
2018-12-26T22:45:01.846Z,-2.30
2018-12-26T22:47:30.312Z,-2.30
2018-12-26T22:49:59.420Z,-2.40
2018-12-26T22:52:27.870Z,-2.40
2018-12-26T22:54:56.390Z,-2.30
2018-12-26T22:57:24.847Z,-2.30
2018-12-26T22:59:53.352Z,-2.30
2018-12-26T23:02:21.922Z,-2.40
2018-12-26T23:04:50.366Z,-2.40
2018-12-26T23:07:18.895Z,-2.40
2018-12-26T23:09:47.385Z,-2.50
2018-12-26T23:12:15.830Z,-2.50
2018-12-26T23:14:44.569Z,-2.50
2018-12-26T23:17:13.098Z,-2.50
2018-12-26T23:19:41.682Z,-2.40
2018-12-26T23:22:10.177Z,-2.40
2018-12-26T23:24:38.967Z,-2.40
2018-12-26T23:27:07.418Z,-2.40
2018-12-26T23:29:36.105Z,-2.30
2018-12-26T23:32:04.633Z,-2.30
2018-12-26T23:34:33.064Z,-2.30
2018-12-26T23:37:01.525Z,-2.30
2018-12-26T23:39:29.981Z,-2.30
2018-12-26T23:41:58.422Z,-2.40
2018-12-26T23:44:26.889Z,-2.40
2018-12-26T23:46:55.410Z,-2.40
2018-12-26T23:49:23.870Z,-2.50
2018-12-26T23:51:52.609Z,-2.50
2018-12-26T23:54:21.137Z,-2.50
2018-12-26T23:56:49.577Z,-2.60
2018-12-26T23:59:18.017Z,-2.60
